AFR127 OEJN-LFPG
Flight info
| Callsign | AFR127 |
|---|---|
| Flight time | N/A |
| Altitude | 40000 |
| Route | BOMOX M686 OTEMO T55 KUNKI P751 METRU DCT TIGRA DCT PIMOT DCT AOSTA/N0486F380 DCT ORSUD DCT MOLUS DCT UNKIR DCT GIVRI DCT TINIL |
| Aircraft | A359/H-SDE2E3GHIJ3J4J5LM1ORWXY/LB1D1 |
Departure
| Time | 2026-05-06 08:35 |
|---|---|
| Airport | King Abdulaziz International Airport (OEJN) |
Arrival
| Time | N/A |
|---|---|
| Airport | Charles de Gaulle International Airport (LFPG) |
| Time | Latitude | Longitude | Altitude | Speed | Heading |
|---|---|---|---|---|---|
| 2026-05-06 08:08 | 21.67141 | 39.16630 | 59 ft | 0 kts | 189° |
| 2026-05-06 08:22 | 21.67150 | 39.16632 | 59 ft | 2 kts | 190° |
| 2026-05-06 08:23 | 21.67165 | 39.16634 | 59 ft | 2 kts | 189° |
| 2026-05-06 08:23 | 21.67180 | 39.16637 | 59 ft | 2 kts | 190° |
| 2026-05-06 08:23 | 21.67195 | 39.16640 | 59 ft | 2 kts | 190° |
| 2026-05-06 08:23 | 21.67209 | 39.16643 | 59 ft | 2 kts | 190° |
| 2026-05-06 08:24 | 21.67224 | 39.16645 | 59 ft | 1 kts | 212° |
| 2026-05-06 08:24 | 21.67232 | 39.16657 | 59 ft | 1 kts | 268° |
| 2026-05-06 08:24 | 21.67231 | 39.16664 | 59 ft | 1 kts | 282° |
| 2026-05-06 08:24 | 21.67231 | 39.16667 | 59 ft | 0 kts | 281° |
| 2026-05-06 08:28 | 21.67234 | 39.16649 | 59 ft | 4 kts | 278° |
| 2026-05-06 08:28 | 21.67239 | 39.16610 | 59 ft | 6 kts | 279° |
| 2026-05-06 08:28 | 21.67255 | 39.16547 | 59 ft | 14 kts | 297° |
| 2026-05-06 08:28 | 21.67348 | 39.16484 | 59 ft | 16 kts | 340° |
| 2026-05-06 08:29 | 21.67461 | 39.16442 | 59 ft | 15 kts | 341° |
| 2026-05-06 08:29 | 21.67538 | 39.16411 | 59 ft | 9 kts | 330° |
| 2026-05-06 08:29 | 21.67559 | 39.16349 | 59 ft | 10 kts | 259° |
| 2026-05-06 08:29 | 21.67534 | 39.16260 | 59 ft | 13 kts | 253° |
| 2026-05-06 08:30 | 21.67499 | 39.16171 | 59 ft | 9 kts | 223° |
| 2026-05-06 08:30 | 21.67431 | 39.16169 | 59 ft | 12 kts | 163° |
| 2026-05-06 08:30 | 21.67335 | 39.16204 | 59 ft | 15 kts | 160° |
| 2026-05-06 08:30 | 21.67221 | 39.16250 | 59 ft | 18 kts | 159° |
| 2026-05-06 08:31 | 21.67097 | 39.16299 | 59 ft | 19 kts | 159° |
| 2026-05-06 08:31 | 21.66963 | 39.16353 | 59 ft | 21 kts | 159° |
| 2026-05-06 08:31 | 21.66816 | 39.16409 | 59 ft | 22 kts | 160° |
| 2026-05-06 08:31 | 21.66663 | 39.16471 | 59 ft | 24 kts | 158° |
| 2026-05-06 08:32 | 21.66502 | 39.16533 | 59 ft | 24 kts | 160° |
| 2026-05-06 08:32 | 21.66347 | 39.16595 | 59 ft | 23 kts | 159° |
| 2026-05-06 08:32 | 21.66242 | 39.16637 | 59 ft | 9 kts | 160° |
| 2026-05-06 08:32 | 21.66181 | 39.16617 | 59 ft | 10 kts | 230° |
| 2026-05-06 08:33 | 21.66148 | 39.16542 | 59 ft | 11 kts | 256° |
| 2026-05-06 08:33 | 21.66165 | 39.16473 | 59 ft | 0 kts | 337° |
| 2026-05-06 08:33 | 21.66168 | 39.16472 | 59 ft | 1 kts | 337° |
| 2026-05-06 08:33 | 21.66180 | 39.16466 | 59 ft | 2 kts | 337° |
| 2026-05-06 08:34 | 21.66346 | 39.16403 | 59 ft | 58 kts | 341° |
| 2026-05-06 08:34 | 21.67860 | 39.15811 | 137 ft | 159 kts | 340° |
| 2026-05-06 08:34 | 21.68926 | 39.15387 | 633 ft | 166 kts | 340° |
| 2026-05-06 08:35 | 21.70013 | 39.14949 | 1225 ft | 169 kts | 339° |
| 2026-05-06 08:35 | 21.71101 | 39.14501 | 1935 ft | 166 kts | 340° |
| 2026-05-06 08:35 | 21.72184 | 39.14062 | 2429 ft | 173 kts | 340° |
| 2026-05-06 08:35 | 21.73353 | 39.13605 | 2850 ft | 184 kts | 342° |
| 2026-05-06 08:36 | 21.74595 | 39.13131 | 3251 ft | 196 kts | 342° |
| 2026-05-06 08:36 | 21.75938 | 39.12609 | 3617 ft | 212 kts | 342° |
| 2026-05-06 08:36 | 21.77377 | 39.12049 | 3945 ft | 229 kts | 341° |
| 2026-05-06 08:36 | 21.78931 | 39.11440 | 4288 ft | 246 kts | 341° |
| 2026-05-06 08:37 | 21.80600 | 39.10784 | 4686 ft | 263 kts | 340° |
| 2026-05-06 08:37 | 21.82372 | 39.10083 | 5206 ft | 275 kts | 340° |
| 2026-05-06 08:37 | 21.84181 | 39.09367 | 5721 ft | 281 kts | 340° |
| 2026-05-06 08:37 | 21.86019 | 39.08640 | 6040 ft | 284 kts | 340° |
| 2026-05-06 08:38 | 21.87911 | 39.07892 | 6528 ft | 291 kts | 340° |
| 2026-05-06 08:38 | 21.89805 | 39.07125 | 7268 ft | 292 kts | 336° |
| 2026-05-06 08:38 | 21.91677 | 39.06255 | 7952 ft | 296 kts | 335° |
| 2026-05-06 08:38 | 21.93565 | 39.05351 | 8623 ft | 301 kts | 334° |
| 2026-05-06 08:39 | 21.95505 | 39.04417 | 9294 ft | 305 kts | 334° |
| 2026-05-06 08:39 | 21.97446 | 39.03484 | 9992 ft | 309 kts | 334° |
| 2026-05-06 08:39 | 21.99428 | 39.02533 | 10503 ft | 320 kts | 334° |
| 2026-05-06 08:39 | 22.01515 | 39.01533 | 10842 ft | 336 kts | 334° |
| 2026-05-06 08:40 | 22.03732 | 39.00470 | 11198 ft | 353 kts | 334° |
| 2026-05-06 08:40 | 22.06012 | 38.99379 | 11494 ft | 369 kts | 334° |
| 2026-05-06 08:40 | 22.08407 | 38.98236 | 12017 ft | 380 kts | 334° |
| 2026-05-06 08:40 | 22.10855 | 38.97065 | 12691 ft | 385 kts | 334° |
| 2026-05-06 08:41 | 22.13336 | 38.95884 | 13372 ft | 389 kts | 334° |
| 2026-05-06 08:41 | 22.15792 | 38.94714 | 14076 ft | 392 kts | 334° |
| 2026-05-06 08:41 | 22.18304 | 38.93516 | 14757 ft | 395 kts | 334° |
| 2026-05-06 08:41 | 22.20816 | 38.92318 | 15438 ft | 398 kts | 334° |
| 2026-05-06 08:42 | 22.23343 | 38.91098 | 16095 ft | 400 kts | 330° |
| 2026-05-06 08:42 | 22.25681 | 38.89427 | 16725 ft | 399 kts | 315° |
| 2026-05-06 08:42 | 22.27493 | 38.87202 | 17416 ft | 395 kts | 300° |
| 2026-05-06 08:42 | 22.28887 | 38.84677 | 18094 ft | 394 kts | 296° |
| 2026-05-06 08:43 | 22.30220 | 38.82081 | 18710 ft | 397 kts | 295° |
| 2026-05-06 08:43 | 22.31512 | 38.79562 | 19304 ft | 400 kts | 296° |
| 2026-05-06 08:43 | 22.32383 | 38.77884 | 19706 ft | 401 kts | 296° |
| 2026-05-06 08:43 | 22.33765 | 38.75255 | 20328 ft | 403 kts | 296° |
| 2026-05-06 08:44 | 22.35148 | 38.72639 | 20919 ft | 405 kts | 296° |
| 2026-05-06 08:44 | 22.36562 | 38.69978 | 21502 ft | 407 kts | 296° |
| 2026-05-06 08:44 | 22.37959 | 38.67353 | 22068 ft | 409 kts | 296° |
| 2026-05-06 08:44 | 22.39374 | 38.64692 | 22644 ft | 411 kts | 296° |
| 2026-05-06 08:45 | 22.40801 | 38.62001 | 23203 ft | 413 kts | 296° |
| 2026-05-06 08:45 | 22.42221 | 38.59321 | 23742 ft | 415 kts | 295° |
| 2026-05-06 08:45 | 22.43665 | 38.56584 | 24221 ft | 418 kts | 295° |
| 2026-05-06 08:45 | 22.45112 | 38.53844 | 24621 ft | 423 kts | 295° |
| 2026-05-06 08:46 | 22.46570 | 38.51082 | 25101 ft | 425 kts | 295° |
| 2026-05-06 08:46 | 22.48063 | 38.48346 | 25572 ft | 428 kts | 298° |
| 2026-05-06 08:46 | 22.49856 | 38.45727 | 25991 ft | 435 kts | 305° |
| 2026-05-06 08:46 | 22.51928 | 38.43351 | 26421 ft | 442 kts | 311° |
| 2026-05-06 08:47 | 22.54297 | 38.41163 | 26857 ft | 446 kts | 315° |
| 2026-05-06 08:47 | 22.56725 | 38.39060 | 27246 ft | 449 kts | 315° |
| 2026-05-06 08:47 | 22.59149 | 38.36982 | 27610 ft | 451 kts | 315° |
| 2026-05-06 08:47 | 22.61615 | 38.34868 | 28005 ft | 452 kts | 315° |
| 2026-05-06 08:48 | 22.64097 | 38.32722 | 28379 ft | 454 kts | 315° |
| 2026-05-06 08:48 | 22.66549 | 38.30593 | 28748 ft | 456 kts | 314° |
| 2026-05-06 08:48 | 22.69016 | 38.28449 | 29109 ft | 457 kts | 314° |
| 2026-05-06 08:48 | 22.71520 | 38.26275 | 29459 ft | 459 kts | 314° |
| 2026-05-06 08:49 | 22.74012 | 38.24113 | 29767 ft | 462 kts | 314° |
| 2026-05-06 08:49 | 22.76516 | 38.21939 | 30071 ft | 464 kts | 314° |
| 2026-05-06 08:49 | 22.79031 | 38.19755 | 30376 ft | 466 kts | 314° |
| 2026-05-06 08:49 | 22.81566 | 38.17553 | 30671 ft | 468 kts | 314° |
| 2026-05-06 08:50 | 22.84109 | 38.15344 | 30926 ft | 470 kts | 314° |
| 2026-05-06 08:50 | 22.86657 | 38.13129 | 31203 ft | 472 kts | 313° |
| 2026-05-06 08:50 | 22.89247 | 38.10877 | 31480 ft | 474 kts | 313° |
| 2026-05-06 08:50 | 22.91800 | 38.08658 | 31795 ft | 474 kts | 313° |
| 2026-05-06 08:51 | 22.94391 | 38.06405 | 32183 ft | 473 kts | 313° |
| 2026-05-06 08:51 | 22.96924 | 38.04203 | 32577 ft | 472 kts | 313° |
| 2026-05-06 08:51 | 22.99497 | 38.01962 | 32937 ft | 472 kts | 313° |
| 2026-05-06 08:51 | 23.02054 | 37.99731 | 33328 ft | 471 kts | 312° |
| 2026-05-06 08:52 | 23.04603 | 37.97506 | 33715 ft | 470 kts | 312° |
| 2026-05-06 08:52 | 23.07143 | 37.95288 | 34105 ft | 468 kts | 312° |
| 2026-05-06 08:52 | 23.09661 | 37.93090 | 34523 ft | 466 kts | 312° |
| 2026-05-06 08:52 | 23.12204 | 37.90876 | 34907 ft | 464 kts | 312° |
| 2026-05-06 08:53 | 23.14710 | 37.88702 | 35243 ft | 463 kts | 312° |
| 2026-05-06 08:53 | 23.17233 | 37.86508 | 35599 ft | 461 kts | 312° |
| 2026-05-06 08:53 | 23.19742 | 37.84319 | 35939 ft | 459 kts | 312° |
| 2026-05-06 08:53 | 23.22212 | 37.82156 | 36213 ft | 459 kts | 312° |
| 2026-05-06 08:54 | 23.24682 | 37.79992 | 36485 ft | 458 kts | 312° |
| 2026-05-06 08:54 | 23.27172 | 37.77806 | 36753 ft | 457 kts | 311° |
| 2026-05-06 08:54 | 23.29626 | 37.75650 | 37027 ft | 456 kts | 311° |
| 2026-05-06 08:54 | 23.32079 | 37.73494 | 37249 ft | 456 kts | 311° |
| 2026-05-06 08:55 | 23.34567 | 37.71312 | 37486 ft | 455 kts | 311° |
| 2026-05-06 08:55 | 23.37022 | 37.69166 | 37694 ft | 455 kts | 311° |
| 2026-05-06 08:55 | 23.39505 | 37.66993 | 37930 ft | 454 kts | 311° |
| 2026-05-06 08:55 | 23.41952 | 37.64850 | 38153 ft | 453 kts | 311° |
| 2026-05-06 08:56 | 23.44392 | 37.62709 | 38335 ft | 453 kts | 311° |
| 2026-05-06 08:56 | 23.46864 | 37.60535 | 38517 ft | 453 kts | 311° |
| 2026-05-06 08:56 | 23.49310 | 37.58382 | 38663 ft | 454 kts | 311° |
| 2026-05-06 08:56 | 23.51759 | 37.56221 | 38773 ft | 455 kts | 311° |
| 2026-05-06 08:57 | 23.54211 | 37.54057 | 38962 ft | 455 kts | 311° |
| 2026-05-06 08:57 | 23.56690 | 37.51870 | 39101 ft | 455 kts | 311° |
| 2026-05-06 08:57 | 23.59149 | 37.49700 | 39206 ft | 456 kts | 311° |
| 2026-05-06 08:57 | 23.61604 | 37.47533 | 39342 ft | 456 kts | 311° |
| 2026-05-06 08:58 | 23.64064 | 37.45361 | 39436 ft | 457 kts | 311° |
| 2026-05-06 08:58 | 23.69031 | 37.40968 | 39608 ft | 458 kts | 311° |
| 2026-05-06 08:58 | 23.71493 | 37.38791 | 39711 ft | 459 kts | 311° |
| 2026-05-06 08:59 | 23.73961 | 37.36607 | 39828 ft | 459 kts | 311° |
| 2026-05-06 08:59 | 23.78937 | 37.32187 | 39873 ft | 459 kts | 311° |
| 2026-05-06 09:00 | 23.83868 | 37.27793 | 39884 ft | 459 kts | 311° |
| 2026-05-06 09:00 | 23.88805 | 37.23402 | 39873 ft | 459 kts | 311° |
| 2026-05-06 09:01 | 23.93776 | 37.18980 | 39887 ft | 460 kts | 311° |
| 2026-05-06 09:01 | 23.98738 | 37.14567 | 39895 ft | 460 kts | 311° |
| 2026-05-06 09:02 | 24.03687 | 37.10159 | 39884 ft | 459 kts | 311° |
| 2026-05-06 09:02 | 24.08659 | 37.05729 | 39890 ft | 460 kts | 311° |
| 2026-05-06 09:03 | 24.13629 | 37.01313 | 39894 ft | 460 kts | 311° |
| 2026-05-06 09:03 | 24.18572 | 36.96924 | 39896 ft | 459 kts | 311° |
| 2026-05-06 09:04 | 24.23538 | 36.92493 | 39902 ft | 459 kts | 310° |
| 2026-05-06 09:04 | 24.28474 | 36.88077 | 39904 ft | 459 kts | 310° |
| 2026-05-06 09:05 | 24.33417 | 36.83645 | 39906 ft | 460 kts | 310° |
| 2026-05-06 09:05 | 24.38387 | 36.79185 | 39904 ft | 459 kts | 310° |
| 2026-05-06 09:06 | 24.43308 | 36.74762 | 39911 ft | 459 kts | 310° |
| 2026-05-06 09:06 | 24.48252 | 36.70309 | 39917 ft | 461 kts | 310° |
| 2026-05-06 09:07 | 24.53211 | 36.65842 | 39919 ft | 461 kts | 309° |
| 2026-05-06 09:07 | 24.57757 | 36.61007 | 39919 ft | 449 kts | 302° |
| 2026-05-06 09:08 | 24.61467 | 36.55621 | 39920 ft | 437 kts | 294° |
| 2026-05-06 09:08 | 24.64321 | 36.49858 | 39919 ft | 427 kts | 286° |
| 2026-05-06 09:09 | 24.66409 | 36.43823 | 39928 ft | 423 kts | 282° |
| 2026-05-06 09:09 | 24.68314 | 36.37703 | 39928 ft | 424 kts | 282° |
| 2026-05-06 09:10 | 24.70212 | 36.31567 | 39931 ft | 424 kts | 281° |
| 2026-05-06 09:10 | 24.72098 | 36.25457 | 39930 ft | 423 kts | 281° |
| 2026-05-06 09:11 | 24.73977 | 36.19360 | 39927 ft | 423 kts | 281° |
| 2026-05-06 09:11 | 24.75858 | 36.13252 | 39929 ft | 423 kts | 281° |
| 2026-05-06 09:12 | 24.77742 | 36.07136 | 39930 ft | 423 kts | 281° |
| 2026-05-06 09:12 | 24.79626 | 36.01002 | 39915 ft | 423 kts | 281° |
| 2026-05-06 09:13 | 24.81495 | 35.94910 | 39916 ft | 424 kts | 281° |
| 2026-05-06 09:13 | 24.83372 | 35.88778 | 39916 ft | 423 kts | 281° |
| 2026-05-06 09:14 | 24.85258 | 35.82618 | 39913 ft | 424 kts | 281° |
| 2026-05-06 09:14 | 24.87120 | 35.76513 | 39919 ft | 424 kts | 281° |
| 2026-05-06 09:15 | 24.88995 | 35.70359 | 39917 ft | 424 kts | 281° |
| 2026-05-06 09:15 | 24.90865 | 35.64217 | 39918 ft | 425 kts | 281° |
| 2026-05-06 09:16 | 24.92734 | 35.58058 | 39921 ft | 425 kts | 281° |
| 2026-05-06 09:16 | 24.94603 | 35.51896 | 39923 ft | 425 kts | 281° |
| 2026-05-06 09:17 | 24.96474 | 35.45718 | 39925 ft | 426 kts | 282° |
| 2026-05-06 09:17 | 24.98334 | 35.39559 | 39923 ft | 427 kts | 281° |
| 2026-05-06 09:18 | 25.00207 | 35.33346 | 39928 ft | 428 kts | 281° |
| 2026-05-06 09:18 | 25.02078 | 35.27119 | 39926 ft | 427 kts | 281° |
| 2026-05-06 09:19 | 25.04167 | 35.20992 | 39927 ft | 433 kts | 286° |
| 2026-05-06 09:19 | 25.06972 | 35.15062 | 39933 ft | 440 kts | 293° |
| 2026-05-06 09:20 | 25.10482 | 35.09482 | 39940 ft | 449 kts | 300° |
| 2026-05-06 09:20 | 25.14719 | 35.04341 | 39946 ft | 456 kts | 307° |
| 2026-05-06 09:21 | 25.19248 | 34.99423 | 39950 ft | 457 kts | 307° |
| 2026-05-06 09:21 | 25.23759 | 34.94534 | 39953 ft | 458 kts | 307° |
| 2026-05-06 09:22 | 25.28298 | 34.89599 | 39951 ft | 456 kts | 307° |
| 2026-05-06 09:22 | 25.32807 | 34.84685 | 39954 ft | 457 kts | 307° |
| 2026-05-06 09:23 | 25.37328 | 34.79753 | 39958 ft | 457 kts | 307° |
| 2026-05-06 09:23 | 25.41848 | 34.74813 | 39961 ft | 455 kts | 307° |
| 2026-05-06 09:24 | 25.46337 | 34.69897 | 39964 ft | 456 kts | 307° |
| 2026-05-06 09:24 | 25.50721 | 34.65092 | 39968 ft | 456 kts | 307° |
| 2026-05-06 09:25 | 25.55215 | 34.60159 | 39974 ft | 456 kts | 307° |
| 2026-05-06 09:25 | 25.59594 | 34.55103 | 39971 ft | 450 kts | 303° |
| 2026-05-06 09:26 | 25.63657 | 34.49869 | 39971 ft | 449 kts | 303° |
| 2026-05-06 09:26 | 25.67684 | 34.44632 | 39972 ft | 448 kts | 303° |
| 2026-05-06 09:27 | 25.71727 | 34.39369 | 39972 ft | 450 kts | 303° |
| 2026-05-06 09:27 | 25.75762 | 34.34107 | 39975 ft | 448 kts | 302° |
| 2026-05-06 09:28 | 25.79787 | 34.28833 | 39980 ft | 448 kts | 302° |
| 2026-05-06 09:28 | 25.83823 | 34.23547 | 39986 ft | 448 kts | 303° |
| 2026-05-06 09:29 | 25.87831 | 34.18299 | 39982 ft | 448 kts | 303° |
| 2026-05-06 09:29 | 25.91863 | 34.13025 | 39982 ft | 448 kts | 303° |
| 2026-05-06 09:30 | 25.95904 | 34.07745 | 39978 ft | 449 kts | 303° |
| 2026-05-06 09:30 | 25.99929 | 34.02473 | 39987 ft | 448 kts | 303° |
| 2026-05-06 09:31 | 26.03956 | 33.97188 | 39985 ft | 449 kts | 303° |
| 2026-05-06 09:31 | 26.07959 | 33.91929 | 39988 ft | 448 kts | 303° |
| 2026-05-06 09:32 | 26.11984 | 33.86646 | 39991 ft | 447 kts | 304° |
| 2026-05-06 09:32 | 26.16017 | 33.81379 | 39994 ft | 447 kts | 303° |
| 2026-05-06 09:33 | 26.20029 | 33.76102 | 40010 ft | 447 kts | 303° |
| 2026-05-06 09:33 | 26.24033 | 33.70821 | 40019 ft | 446 kts | 303° |
| 2026-05-06 09:34 | 26.28017 | 33.65556 | 40022 ft | 447 kts | 303° |
| 2026-05-06 09:34 | 26.32000 | 33.60276 | 40020 ft | 446 kts | 303° |
| 2026-05-06 09:35 | 26.35994 | 33.54976 | 40020 ft | 446 kts | 303° |
| 2026-05-06 09:35 | 26.39984 | 33.49668 | 40015 ft | 446 kts | 303° |
| 2026-05-06 09:36 | 26.43965 | 33.44377 | 40015 ft | 446 kts | 303° |
| 2026-05-06 09:36 | 26.47938 | 33.39113 | 40008 ft | 445 kts | 304° |
| 2026-05-06 09:37 | 26.51942 | 33.33806 | 40010 ft | 446 kts | 303° |
| 2026-05-06 09:37 | 26.55903 | 33.28513 | 40003 ft | 445 kts | 303° |
| 2026-05-06 09:38 | 26.59853 | 33.23234 | 39999 ft | 445 kts | 303° |
| 2026-05-06 09:38 | 26.63822 | 33.17928 | 39996 ft | 445 kts | 303° |
| 2026-05-06 09:39 | 26.67798 | 33.12609 | 40000 ft | 445 kts | 304° |
| 2026-05-06 09:39 | 26.71738 | 33.07334 | 39995 ft | 444 kts | 303° |
| 2026-05-06 09:40 | 26.75697 | 33.02025 | 39983 ft | 443 kts | 304° |
| 2026-05-06 09:40 | 26.81607 | 32.94093 | 39991 ft | 444 kts | 304° |
| 2026-05-06 09:41 | 26.85539 | 32.88807 | 39983 ft | 445 kts | 304° |
| 2026-05-06 09:41 | 26.89515 | 32.83453 | 39989 ft | 445 kts | 304° |
| 2026-05-06 09:42 | 26.93469 | 32.78124 | 39991 ft | 445 kts | 304° |
| 2026-05-06 09:42 | 26.97404 | 32.72816 | 39995 ft | 445 kts | 304° |
| 2026-05-06 09:43 | 27.01356 | 32.67479 | 39999 ft | 444 kts | 304° |
| 2026-05-06 09:43 | 27.05300 | 32.62143 | 40012 ft | 443 kts | 304° |
| 2026-05-06 09:44 | 27.09218 | 32.56838 | 40021 ft | 444 kts | 304° |
| 2026-05-06 09:44 | 27.13158 | 32.51521 | 40025 ft | 443 kts | 304° |
| 2026-05-06 09:45 | 27.17108 | 32.46188 | 40032 ft | 443 kts | 304° |
| 2026-05-06 09:45 | 27.21038 | 32.40850 | 40032 ft | 444 kts | 304° |
| 2026-05-06 09:46 | 27.24931 | 32.35534 | 40035 ft | 443 kts | 304° |
| 2026-05-06 09:46 | 27.28832 | 32.30193 | 40045 ft | 444 kts | 304° |
| 2026-05-06 09:47 | 27.32673 | 32.24787 | 40047 ft | 442 kts | 302° |
| 2026-05-06 09:47 | 27.36419 | 32.19311 | 40046 ft | 441 kts | 302° |
| 2026-05-06 09:48 | 27.40131 | 32.13876 | 40049 ft | 441 kts | 302° |
| 2026-05-06 09:48 | 27.43870 | 32.08404 | 40040 ft | 441 kts | 302° |
| 2026-05-06 09:49 | 27.47581 | 32.02970 | 40041 ft | 440 kts | 302° |
| 2026-05-06 09:49 | 27.51315 | 31.97498 | 40038 ft | 441 kts | 302° |
| 2026-05-06 09:50 | 27.55040 | 31.92032 | 40042 ft | 440 kts | 302° |
| 2026-05-06 09:50 | 27.58768 | 31.86556 | 40040 ft | 440 kts | 303° |
| 2026-05-06 09:51 | 27.62473 | 31.81106 | 40058 ft | 439 kts | 303° |
| 2026-05-06 09:51 | 27.66177 | 31.75653 | 40040 ft | 438 kts | 302° |
| 2026-05-06 09:52 | 27.69871 | 31.70203 | 40053 ft | 438 kts | 303° |
| 2026-05-06 09:52 | 27.73562 | 31.64752 | 40058 ft | 437 kts | 302° |
| 2026-05-06 09:53 | 27.77233 | 31.59324 | 40038 ft | 437 kts | 303° |
| 2026-05-06 09:53 | 27.80917 | 31.53870 | 40045 ft | 437 kts | 303° |
| 2026-05-06 09:54 | 27.84597 | 31.48414 | 40042 ft | 438 kts | 303° |
| 2026-05-06 09:54 | 27.88263 | 31.42973 | 40036 ft | 438 kts | 303° |
| 2026-05-06 09:55 | 27.91945 | 31.37497 | 40055 ft | 438 kts | 303° |
| 2026-05-06 09:55 | 27.95612 | 31.32030 | 40026 ft | 438 kts | 302° |
| 2026-05-06 09:56 | 27.99291 | 31.26520 | 40025 ft | 437 kts | 302° |
| 2026-05-06 09:56 | 28.02961 | 31.21038 | 40047 ft | 437 kts | 303° |
| 2026-05-06 09:57 | 28.06609 | 31.15570 | 40052 ft | 436 kts | 302° |
| 2026-05-06 09:57 | 28.10016 | 31.09944 | 40032 ft | 435 kts | 300° |
| 2026-05-06 09:58 | 28.13387 | 31.04285 | 40017 ft | 435 kts | 300° |
| 2026-05-06 09:58 | 28.16746 | 30.98627 | 40053 ft | 434 kts | 300° |
| 2026-05-06 09:59 | 28.20104 | 30.92941 | 40049 ft | 434 kts | 300° |
| 2026-05-06 09:59 | 28.23438 | 30.87276 | 40039 ft | 433 kts | 300° |
| 2026-05-06 10:00 | 28.26782 | 30.81588 | 40036 ft | 433 kts | 300° |
| 2026-05-06 10:00 | 28.30102 | 30.75926 | 40023 ft | 433 kts | 300° |
| 2026-05-06 10:01 | 28.33450 | 30.70213 | 40030 ft | 434 kts | 300° |
| 2026-05-06 10:01 | 28.36766 | 30.64543 | 40039 ft | 433 kts | 300° |
| 2026-05-06 10:02 | 28.40082 | 30.58869 | 40042 ft | 433 kts | 300° |
| 2026-05-06 10:02 | 28.43418 | 30.53151 | 40035 ft | 433 kts | 300° |
| 2026-05-06 10:03 | 28.46738 | 30.47450 | 40040 ft | 433 kts | 300° |
| 2026-05-06 10:03 | 28.50049 | 30.41761 | 40047 ft | 433 kts | 300° |
| 2026-05-06 10:04 | 28.53361 | 30.36061 | 40050 ft | 433 kts | 300° |
| 2026-05-06 10:04 | 28.56642 | 30.30387 | 40053 ft | 432 kts | 300° |
| 2026-05-06 10:05 | 28.59927 | 30.24699 | 40043 ft | 432 kts | 300° |
| 2026-05-06 10:05 | 28.63239 | 30.18967 | 40056 ft | 433 kts | 300° |
| 2026-05-06 10:06 | 28.66523 | 30.13282 | 40057 ft | 432 kts | 300° |
| 2026-05-06 10:06 | 28.69813 | 30.07580 | 40061 ft | 431 kts | 300° |
| 2026-05-06 10:07 | 28.73094 | 30.01885 | 40062 ft | 431 kts | 300° |
| 2026-05-06 10:07 | 28.76380 | 29.96176 | 40056 ft | 430 kts | 300° |
| 2026-05-06 10:08 | 28.79657 | 29.90475 | 40060 ft | 430 kts | 300° |
| 2026-05-06 10:08 | 28.82922 | 29.84786 | 40056 ft | 430 kts | 300° |
| 2026-05-06 10:09 | 28.86182 | 29.79098 | 40063 ft | 430 kts | 300° |
| 2026-05-06 10:09 | 28.89442 | 29.73403 | 40049 ft | 430 kts | 300° |
| 2026-05-06 10:10 | 28.92699 | 29.67701 | 40056 ft | 430 kts | 300° |
| 2026-05-06 10:10 | 28.95949 | 29.62005 | 40060 ft | 430 kts | 300° |
| 2026-05-06 10:11 | 28.99200 | 29.56298 | 40066 ft | 430 kts | 300° |
| 2026-05-06 10:11 | 29.02465 | 29.50555 | 40061 ft | 430 kts | 300° |
| 2026-05-06 10:12 | 29.05713 | 29.44838 | 40057 ft | 430 kts | 300° |
| 2026-05-06 10:12 | 29.09144 | 29.39247 | 40056 ft | 432 kts | 304° |
| 2026-05-06 10:13 | 29.13059 | 29.33985 | 40059 ft | 435 kts | 309° |
| 2026-05-06 10:13 | 29.17390 | 29.29121 | 40063 ft | 438 kts | 314° |
| 2026-05-06 10:14 | 29.22118 | 29.24690 | 40068 ft | 441 kts | 317° |
| 2026-05-06 10:14 | 29.26990 | 29.20434 | 40061 ft | 441 kts | 318° |
| 2026-05-06 10:15 | 29.31875 | 29.16190 | 40065 ft | 441 kts | 317° |
| 2026-05-06 10:15 | 29.36760 | 29.11941 | 40064 ft | 441 kts | 318° |
| 2026-05-06 10:16 | 29.41656 | 29.07683 | 40063 ft | 441 kts | 318° |
| 2026-05-06 10:16 | 29.46554 | 29.03425 | 40064 ft | 442 kts | 318° |
| 2026-05-06 10:17 | 29.51414 | 28.99186 | 40067 ft | 441 kts | 318° |
| 2026-05-06 10:17 | 29.56298 | 28.94913 | 40065 ft | 441 kts | 318° |
| 2026-05-06 10:18 | 29.61180 | 28.90633 | 40064 ft | 442 kts | 318° |
| 2026-05-06 10:18 | 29.66078 | 28.86331 | 40069 ft | 442 kts | 318° |
| 2026-05-06 10:19 | 29.70949 | 28.82049 | 40070 ft | 442 kts | 318° |
| 2026-05-06 10:19 | 29.75813 | 28.77766 | 40073 ft | 441 kts | 318° |
| 2026-05-06 10:20 | 29.80696 | 28.73465 | 40072 ft | 442 kts | 318° |
| 2026-05-06 10:20 | 29.85547 | 28.69184 | 40063 ft | 441 kts | 318° |
| 2026-05-06 10:21 | 29.90438 | 28.64862 | 40066 ft | 442 kts | 317° |
| 2026-05-06 10:21 | 29.95307 | 28.60553 | 40068 ft | 443 kts | 318° |
| 2026-05-06 10:22 | 30.00180 | 28.56234 | 40054 ft | 445 kts | 318° |
| 2026-05-06 10:22 | 30.05095 | 28.51874 | 40058 ft | 445 kts | 318° |
| 2026-05-06 10:23 | 30.09999 | 28.47519 | 40057 ft | 445 kts | 318° |
| 2026-05-06 10:23 | 30.14905 | 28.43181 | 40064 ft | 445 kts | 318° |
| 2026-05-06 10:24 | 30.19850 | 28.38799 | 40064 ft | 445 kts | 318° |
| 2026-05-06 10:24 | 30.24726 | 28.34459 | 40062 ft | 445 kts | 317° |
| 2026-05-06 10:25 | 30.29624 | 28.30061 | 40063 ft | 445 kts | 317° |
| 2026-05-06 10:25 | 30.34506 | 28.25681 | 40059 ft | 446 kts | 317° |
| 2026-05-06 10:26 | 30.39405 | 28.21287 | 40072 ft | 445 kts | 317° |
| 2026-05-06 10:26 | 30.44310 | 28.16889 | 40069 ft | 445 kts | 317° |
| 2026-05-06 10:27 | 30.49190 | 28.12509 | 40077 ft | 446 kts | 317° |
| 2026-05-06 10:27 | 30.54075 | 28.08116 | 40079 ft | 446 kts | 317° |
| 2026-05-06 10:28 | 30.58979 | 28.03703 | 40085 ft | 444 kts | 318° |
| 2026-05-06 10:28 | 30.63840 | 27.99322 | 40084 ft | 444 kts | 318° |
| 2026-05-06 10:29 | 30.68703 | 27.94936 | 40086 ft | 445 kts | 318° |
| 2026-05-06 10:29 | 30.73611 | 27.90500 | 40086 ft | 446 kts | 318° |
| 2026-05-06 10:30 | 30.78499 | 27.86078 | 40090 ft | 445 kts | 317° |
| 2026-05-06 10:30 | 30.83370 | 27.81664 | 40087 ft | 445 kts | 317° |
| 2026-05-06 10:31 | 30.88225 | 27.77258 | 40092 ft | 444 kts | 318° |
| 2026-05-06 10:31 | 30.93092 | 27.72833 | 40089 ft | 444 kts | 317° |
| 2026-05-06 10:32 | 30.97972 | 27.68388 | 40092 ft | 444 kts | 317° |
| 2026-05-06 10:32 | 31.02837 | 27.63949 | 40092 ft | 445 kts | 318° |
| 2026-05-06 10:33 | 31.07642 | 27.59472 | 40090 ft | 444 kts | 315° |
| 2026-05-06 10:33 | 31.12142 | 27.54538 | 40089 ft | 441 kts | 310° |
| 2026-05-06 10:34 | 31.16191 | 27.49183 | 40090 ft | 439 kts | 306° |
| 2026-05-06 10:34 | 31.19748 | 27.43480 | 40095 ft | 437 kts | 302° |
| 2026-05-06 10:35 | 31.23146 | 27.37595 | 40095 ft | 437 kts | 302° |
| 2026-05-06 10:35 | 31.26566 | 27.31736 | 40094 ft | 438 kts | 303° |
| 2026-05-06 10:36 | 31.30419 | 27.26202 | 40099 ft | 441 kts | 309° |
| 2026-05-06 10:36 | 31.34794 | 27.21150 | 40102 ft | 444 kts | 315° |
| 2026-05-06 10:37 | 31.39644 | 27.16663 | 40103 ft | 447 kts | 321° |
| 2026-05-06 10:37 | 31.44844 | 27.12666 | 40106 ft | 448 kts | 323° |
| 2026-05-06 10:38 | 31.50094 | 27.08734 | 40101 ft | 449 kts | 323° |
| 2026-05-06 10:38 | 31.55342 | 27.04800 | 40096 ft | 448 kts | 323° |
| 2026-05-06 10:39 | 31.60591 | 27.00858 | 40095 ft | 448 kts | 323° |
| 2026-05-06 10:39 | 31.65814 | 26.96933 | 40101 ft | 448 kts | 323° |
| 2026-05-06 10:40 | 31.71082 | 26.92967 | 40103 ft | 448 kts | 323° |
| 2026-05-06 10:40 | 31.76310 | 26.89025 | 40101 ft | 448 kts | 323° |
| 2026-05-06 10:41 | 31.81566 | 26.85058 | 40102 ft | 448 kts | 323° |
| 2026-05-06 10:41 | 31.86787 | 26.81112 | 40110 ft | 448 kts | 323° |
| 2026-05-06 10:42 | 31.92021 | 26.77149 | 40106 ft | 448 kts | 323° |
| 2026-05-06 10:42 | 31.97245 | 26.73189 | 40102 ft | 447 kts | 323° |
| 2026-05-06 10:43 | 32.02469 | 26.69223 | 40108 ft | 448 kts | 323° |
| 2026-05-06 10:44 | 32.10336 | 26.63240 | 40113 ft | 448 kts | 323° |
| 2026-05-06 10:44 | 32.15543 | 26.59296 | 40107 ft | 447 kts | 323° |
| 2026-05-06 10:45 | 32.20774 | 26.55323 | 40106 ft | 447 kts | 323° |
| 2026-05-06 10:45 | 32.26015 | 26.51326 | 40103 ft | 448 kts | 324° |
| 2026-05-06 10:46 | 32.31233 | 26.47340 | 40100 ft | 447 kts | 323° |
| 2026-05-06 10:46 | 32.36471 | 26.43328 | 40102 ft | 448 kts | 323° |
| 2026-05-06 10:47 | 32.41704 | 26.39315 | 40105 ft | 447 kts | 323° |
| 2026-05-06 10:47 | 32.46915 | 26.35311 | 40102 ft | 447 kts | 323° |
| 2026-05-06 10:48 | 32.52116 | 26.31289 | 40098 ft | 446 kts | 323° |
| 2026-05-06 10:48 | 32.57314 | 26.27261 | 40101 ft | 446 kts | 323° |
| 2026-05-06 10:49 | 32.62496 | 26.23255 | 40100 ft | 446 kts | 323° |
| 2026-05-06 10:49 | 32.67689 | 26.19239 | 40106 ft | 447 kts | 323° |
| 2026-05-06 10:50 | 32.72887 | 26.15217 | 40099 ft | 447 kts | 323° |
| 2026-05-06 10:50 | 32.78086 | 26.11188 | 40104 ft | 448 kts | 323° |
| 2026-05-06 10:51 | 32.83321 | 26.07128 | 40106 ft | 448 kts | 323° |
| 2026-05-06 10:51 | 32.88525 | 26.03085 | 40103 ft | 448 kts | 323° |
| 2026-05-06 10:52 | 32.93744 | 25.99026 | 40105 ft | 447 kts | 323° |
| 2026-05-06 10:52 | 32.98914 | 25.94999 | 40109 ft | 446 kts | 323° |
| 2026-05-06 10:53 | 33.04113 | 25.90942 | 40107 ft | 446 kts | 323° |
| 2026-05-06 10:53 | 33.09283 | 25.86902 | 40111 ft | 446 kts | 323° |
| 2026-05-06 10:54 | 33.14461 | 25.82868 | 40100 ft | 446 kts | 324° |
| 2026-05-06 10:54 | 33.19667 | 25.78809 | 40095 ft | 446 kts | 323° |
| 2026-05-06 10:55 | 33.24839 | 25.74758 | 40086 ft | 446 kts | 323° |
| 2026-05-06 10:55 | 33.30038 | 25.70674 | 40091 ft | 446 kts | 324° |
| 2026-05-06 10:56 | 33.35202 | 25.66612 | 40091 ft | 446 kts | 323° |
| 2026-05-06 10:56 | 33.40389 | 25.62523 | 40095 ft | 446 kts | 324° |
| 2026-05-06 10:57 | 33.45538 | 25.58459 | 40084 ft | 445 kts | 324° |
| 2026-05-06 10:57 | 33.50713 | 25.54368 | 40090 ft | 445 kts | 324° |
| 2026-05-06 10:58 | 33.55875 | 25.50280 | 40084 ft | 445 kts | 324° |
| 2026-05-06 10:58 | 33.61031 | 25.46192 | 40074 ft | 445 kts | 324° |
| 2026-05-06 10:59 | 33.66175 | 25.42105 | 40083 ft | 445 kts | 324° |
| 2026-05-06 10:59 | 33.71316 | 25.38015 | 40093 ft | 445 kts | 324° |
| 2026-05-06 11:00 | 33.76461 | 25.33913 | 40107 ft | 444 kts | 323° |
| 2026-05-06 11:00 | 33.81609 | 25.29778 | 40094 ft | 443 kts | 323° |
| 2026-05-06 11:01 | 33.86711 | 25.25686 | 40097 ft | 444 kts | 323° |
| 2026-05-06 11:01 | 33.91853 | 25.21566 | 40085 ft | 443 kts | 323° |
| 2026-05-06 11:02 | 33.96977 | 25.17456 | 40091 ft | 443 kts | 323° |
| 2026-05-06 11:02 | 34.02033 | 25.13182 | 40078 ft | 442 kts | 321° |
| 2026-05-06 11:03 | 34.06916 | 25.08724 | 40088 ft | 442 kts | 320° |
| 2026-05-06 11:03 | 34.11801 | 25.04241 | 40080 ft | 441 kts | 321° |
| 2026-05-06 11:04 | 34.16678 | 24.99784 | 40082 ft | 442 kts | 320° |
| 2026-05-06 11:04 | 34.21593 | 24.95272 | 40080 ft | 443 kts | 320° |
| 2026-05-06 11:05 | 34.26484 | 24.90765 | 40077 ft | 443 kts | 320° |
| 2026-05-06 11:05 | 34.31381 | 24.86241 | 40086 ft | 443 kts | 320° |
| 2026-05-06 11:06 | 34.36272 | 24.81715 | 40079 ft | 443 kts | 321° |
| 2026-05-06 11:06 | 34.41151 | 24.77194 | 40081 ft | 443 kts | 321° |
| 2026-05-06 11:07 | 34.46026 | 24.72668 | 40075 ft | 443 kts | 320° |
| 2026-05-06 11:07 | 34.50905 | 24.68133 | 40080 ft | 443 kts | 320° |
| 2026-05-06 11:08 | 34.55790 | 24.63583 | 40082 ft | 444 kts | 321° |
| 2026-05-06 11:08 | 34.60687 | 24.59017 | 40071 ft | 444 kts | 321° |
| 2026-05-06 11:09 | 34.65564 | 24.54462 | 40079 ft | 444 kts | 320° |
| 2026-05-06 11:09 | 34.70460 | 24.49882 | 40078 ft | 443 kts | 321° |
| 2026-05-06 11:10 | 34.75310 | 24.45338 | 40070 ft | 443 kts | 321° |
| 2026-05-06 11:10 | 34.80208 | 24.40742 | 40076 ft | 444 kts | 321° |
| 2026-05-06 11:11 | 34.85090 | 24.36156 | 40064 ft | 444 kts | 321° |
| 2026-05-06 11:11 | 34.89967 | 24.31548 | 40071 ft | 444 kts | 320° |
| 2026-05-06 11:12 | 34.94809 | 24.26958 | 40072 ft | 443 kts | 320° |
| 2026-05-06 11:12 | 34.99661 | 24.22366 | 40062 ft | 444 kts | 320° |
| 2026-05-06 11:13 | 35.04558 | 24.17728 | 40062 ft | 444 kts | 320° |
| 2026-05-06 11:13 | 35.09424 | 24.13118 | 40068 ft | 444 kts | 320° |
| 2026-05-06 11:14 | 35.14311 | 24.08505 | 40079 ft | 445 kts | 320° |
| 2026-05-06 11:14 | 35.19183 | 24.03901 | 40095 ft | 444 kts | 320° |
| 2026-05-06 11:15 | 35.24068 | 23.99263 | 40109 ft | 445 kts | 320° |
| 2026-05-06 11:15 | 35.28925 | 23.94640 | 40110 ft | 444 kts | 320° |
| 2026-05-06 11:16 | 35.33815 | 23.89975 | 40101 ft | 445 kts | 320° |
| 2026-05-06 11:16 | 35.38678 | 23.85325 | 40091 ft | 445 kts | 320° |
| 2026-05-06 11:17 | 35.43528 | 23.80682 | 40081 ft | 444 kts | 320° |
| 2026-05-06 11:17 | 35.48397 | 23.76013 | 40077 ft | 443 kts | 320° |
| 2026-05-06 11:18 | 35.53232 | 23.71371 | 40074 ft | 444 kts | 320° |
| 2026-05-06 11:18 | 35.58094 | 23.66695 | 40069 ft | 444 kts | 320° |
| 2026-05-06 11:19 | 35.62947 | 23.62017 | 40067 ft | 444 kts | 320° |
| 2026-05-06 11:19 | 35.67790 | 23.57343 | 40072 ft | 444 kts | 320° |
| 2026-05-06 11:20 | 35.72625 | 23.52670 | 40069 ft | 444 kts | 320° |
| 2026-05-06 11:20 | 35.77460 | 23.47988 | 40069 ft | 444 kts | 320° |
| 2026-05-06 11:21 | 35.82328 | 23.43269 | 40066 ft | 445 kts | 320° |
| 2026-05-06 11:21 | 35.87143 | 23.38593 | 40059 ft | 444 kts | 320° |
| 2026-05-06 11:22 | 35.91999 | 23.33866 | 40063 ft | 444 kts | 320° |
| 2026-05-06 11:22 | 35.96846 | 23.29114 | 40065 ft | 445 kts | 320° |
| 2026-05-06 11:23 | 36.01692 | 23.24366 | 40058 ft | 445 kts | 320° |
| 2026-05-06 11:23 | 36.06520 | 23.19641 | 40070 ft | 445 kts | 320° |
| 2026-05-06 11:24 | 36.11313 | 23.14947 | 40064 ft | 445 kts | 320° |
| 2026-05-06 11:24 | 36.16156 | 23.10228 | 40066 ft | 445 kts | 320° |
| 2026-05-06 11:25 | 36.21010 | 23.05478 | 40069 ft | 446 kts | 320° |
| 2026-05-06 11:25 | 36.25840 | 23.00735 | 40070 ft | 445 kts | 320° |
| 2026-05-06 11:26 | 36.30691 | 22.95958 | 40073 ft | 445 kts | 320° |
| 2026-05-06 11:26 | 36.35516 | 22.91196 | 40061 ft | 445 kts | 320° |
| 2026-05-06 11:27 | 36.40355 | 22.86412 | 40057 ft | 446 kts | 320° |
| 2026-05-06 11:27 | 36.45216 | 22.81599 | 40047 ft | 446 kts | 320° |
| 2026-05-06 11:28 | 36.50061 | 22.76793 | 40044 ft | 446 kts | 320° |
| 2026-05-06 11:28 | 36.54882 | 22.72002 | 40044 ft | 446 kts | 320° |
| 2026-05-06 11:29 | 36.59714 | 22.67194 | 40040 ft | 446 kts | 320° |
| 2026-05-06 11:29 | 36.64566 | 22.62356 | 40038 ft | 448 kts | 320° |
| 2026-05-06 11:30 | 36.69406 | 22.57526 | 40039 ft | 448 kts | 320° |
| 2026-05-06 11:30 | 36.74248 | 22.52684 | 40045 ft | 448 kts | 320° |
| 2026-05-06 11:31 | 36.79108 | 22.47815 | 40046 ft | 448 kts | 320° |
| 2026-05-06 11:31 | 36.83960 | 22.42947 | 40045 ft | 447 kts | 320° |
| 2026-05-06 11:32 | 36.88778 | 22.38103 | 40053 ft | 447 kts | 320° |
| 2026-05-06 11:32 | 36.93636 | 22.33205 | 40061 ft | 448 kts | 319° |
| 2026-05-06 11:33 | 36.98445 | 22.28326 | 40077 ft | 448 kts | 319° |
| 2026-05-06 11:33 | 37.03293 | 22.23412 | 40090 ft | 449 kts | 319° |
| 2026-05-06 11:34 | 37.08137 | 22.18502 | 40083 ft | 450 kts | 319° |
| 2026-05-06 11:34 | 37.13009 | 22.13575 | 40080 ft | 449 kts | 319° |
| 2026-05-06 11:35 | 37.17867 | 22.08671 | 40071 ft | 449 kts | 319° |
| 2026-05-06 11:35 | 37.22720 | 22.03749 | 40055 ft | 449 kts | 319° |
| 2026-05-06 11:36 | 37.27550 | 21.98835 | 40051 ft | 450 kts | 319° |
| 2026-05-06 11:36 | 37.32415 | 21.93870 | 40052 ft | 451 kts | 319° |
| 2026-05-06 11:37 | 37.37267 | 21.88910 | 40063 ft | 451 kts | 319° |
| 2026-05-06 11:37 | 37.42115 | 21.83946 | 40074 ft | 450 kts | 319° |
| 2026-05-06 11:38 | 37.46930 | 21.79007 | 40089 ft | 450 kts | 319° |
| 2026-05-06 11:38 | 37.51775 | 21.74027 | 40099 ft | 450 kts | 319° |
| 2026-05-06 11:39 | 37.56635 | 21.69024 | 40101 ft | 450 kts | 319° |
| 2026-05-06 11:39 | 37.61462 | 21.64046 | 40090 ft | 451 kts | 319° |
| 2026-05-06 11:40 | 37.66311 | 21.59037 | 40080 ft | 451 kts | 319° |
| 2026-05-06 11:40 | 37.71161 | 21.54016 | 40075 ft | 451 kts | 319° |
| 2026-05-06 11:41 | 37.75983 | 21.49018 | 40069 ft | 451 kts | 319° |
| 2026-05-06 11:41 | 37.80840 | 21.43975 | 40066 ft | 451 kts | 319° |
| 2026-05-06 11:42 | 37.85666 | 21.38955 | 40078 ft | 451 kts | 319° |
| 2026-05-06 11:42 | 37.90514 | 21.33901 | 40075 ft | 451 kts | 319° |
| 2026-05-06 11:43 | 37.95330 | 21.28844 | 40065 ft | 451 kts | 318° |
| 2026-05-06 11:43 | 38.00139 | 21.23796 | 40070 ft | 451 kts | 319° |
| 2026-05-06 11:44 | 38.07377 | 21.16199 | 40064 ft | 452 kts | 319° |
| 2026-05-06 11:44 | 38.12235 | 21.11103 | 40066 ft | 452 kts | 319° |
| 2026-05-06 11:45 | 38.17050 | 21.06069 | 40068 ft | 451 kts | 319° |
| 2026-05-06 11:45 | 38.21897 | 21.00976 | 40070 ft | 452 kts | 319° |
| 2026-05-06 11:46 | 38.26741 | 20.95868 | 40059 ft | 453 kts | 319° |
| 2026-05-06 11:46 | 38.31583 | 20.90750 | 40064 ft | 452 kts | 319° |
| 2026-05-06 11:47 | 38.36380 | 20.85665 | 40064 ft | 451 kts | 318° |
| 2026-05-06 11:47 | 38.41214 | 20.80533 | 40066 ft | 451 kts | 319° |
| 2026-05-06 11:48 | 38.46009 | 20.75432 | 40065 ft | 451 kts | 318° |
| 2026-05-06 11:48 | 38.50807 | 20.70318 | 40061 ft | 452 kts | 319° |
| 2026-05-06 11:49 | 38.55625 | 20.65176 | 40064 ft | 453 kts | 318° |
| 2026-05-06 11:49 | 38.60456 | 20.60008 | 40065 ft | 453 kts | 319° |
| 2026-05-06 11:50 | 38.65275 | 20.54844 | 40065 ft | 453 kts | 319° |
| 2026-05-06 11:50 | 38.70104 | 20.49662 | 40065 ft | 453 kts | 319° |
| 2026-05-06 11:51 | 38.74902 | 20.44506 | 40069 ft | 453 kts | 318° |
| 2026-05-06 11:51 | 38.79715 | 20.39321 | 40065 ft | 452 kts | 318° |
| 2026-05-06 11:52 | 38.84507 | 20.34149 | 40065 ft | 453 kts | 317° |
| 2026-05-06 11:52 | 38.89328 | 20.28905 | 40063 ft | 453 kts | 317° |
| 2026-05-06 11:53 | 38.94111 | 20.23704 | 40063 ft | 453 kts | 317° |
| 2026-05-06 11:53 | 38.98914 | 20.18483 | 40063 ft | 453 kts | 317° |
| 2026-05-06 11:54 | 39.03700 | 20.13278 | 40058 ft | 453 kts | 318° |
| 2026-05-06 11:54 | 39.08538 | 20.08009 | 40063 ft | 454 kts | 317° |
| 2026-05-06 11:55 | 39.13338 | 20.02790 | 40060 ft | 455 kts | 317° |
| 2026-05-06 11:55 | 39.18148 | 19.97564 | 40061 ft | 455 kts | 317° |
| 2026-05-06 11:56 | 39.22982 | 19.92280 | 40064 ft | 454 kts | 317° |
| 2026-05-06 11:56 | 39.27806 | 19.86990 | 40061 ft | 454 kts | 317° |
| 2026-05-06 11:57 | 39.32603 | 19.81717 | 40055 ft | 454 kts | 317° |
| 2026-05-06 11:57 | 39.37380 | 19.76457 | 40084 ft | 455 kts | 317° |
| 2026-05-06 11:58 | 39.42189 | 19.71149 | 40061 ft | 456 kts | 317° |
| 2026-05-06 11:58 | 39.47006 | 19.65821 | 40053 ft | 457 kts | 317° |
| 2026-05-06 11:59 | 39.51844 | 19.60460 | 40055 ft | 457 kts | 317° |
| 2026-05-06 11:59 | 39.56643 | 19.55134 | 40055 ft | 457 kts | 317° |
| 2026-05-06 12:00 | 39.61449 | 19.49791 | 40049 ft | 457 kts | 317° |
| 2026-05-06 12:00 | 39.66265 | 19.44424 | 40049 ft | 457 kts | 317° |
| 2026-05-06 12:01 | 39.71080 | 19.39046 | 40059 ft | 458 kts | 317° |
| 2026-05-06 12:01 | 39.75874 | 19.33680 | 40050 ft | 458 kts | 316° |
| 2026-05-06 12:02 | 39.80681 | 19.28260 | 40046 ft | 458 kts | 316° |
| 2026-05-06 12:02 | 39.85515 | 19.22815 | 40050 ft | 458 kts | 316° |
| 2026-05-06 12:03 | 39.90317 | 19.17406 | 40044 ft | 459 kts | 316° |
| 2026-05-06 12:03 | 39.95122 | 19.11979 | 40040 ft | 460 kts | 316° |
| 2026-05-06 12:04 | 39.99942 | 19.06528 | 40044 ft | 460 kts | 316° |
| 2026-05-06 12:04 | 40.04617 | 19.00855 | 40038 ft | 459 kts | 311° |
| 2026-05-06 12:05 | 40.08747 | 18.94731 | 40038 ft | 456 kts | 306° |
| 2026-05-06 12:05 | 40.12511 | 18.88309 | 40039 ft | 456 kts | 304° |
| 2026-05-06 12:06 | 40.16321 | 18.81728 | 40034 ft | 456 kts | 304° |
| 2026-05-06 12:06 | 40.20134 | 18.75106 | 40030 ft | 456 kts | 304° |
| 2026-05-06 12:07 | 40.23949 | 18.68458 | 40030 ft | 456 kts | 304° |
| 2026-05-06 12:07 | 40.27721 | 18.61867 | 40029 ft | 455 kts | 304° |
| 2026-05-06 12:08 | 40.31499 | 18.55252 | 40023 ft | 455 kts | 304° |
| 2026-05-06 12:08 | 40.35282 | 18.48614 | 40023 ft | 455 kts | 304° |
| 2026-05-06 12:09 | 40.39056 | 18.41980 | 40023 ft | 455 kts | 304° |
| 2026-05-06 12:09 | 40.42829 | 18.35328 | 40024 ft | 455 kts | 304° |
| 2026-05-06 12:10 | 40.46574 | 18.28692 | 40019 ft | 455 kts | 303° |
| 2026-05-06 12:10 | 40.50346 | 18.21992 | 40023 ft | 456 kts | 303° |
| 2026-05-06 12:11 | 40.54091 | 18.15345 | 40020 ft | 456 kts | 303° |
| 2026-05-06 12:11 | 40.57864 | 18.08632 | 40035 ft | 457 kts | 303° |
| 2026-05-06 12:12 | 40.61559 | 18.02046 | 40041 ft | 456 kts | 303° |
| 2026-05-06 12:12 | 40.65296 | 17.95376 | 40003 ft | 455 kts | 303° |
| 2026-05-06 12:13 | 40.69047 | 17.88667 | 40010 ft | 456 kts | 303° |
| 2026-05-06 12:13 | 40.72792 | 17.81956 | 40006 ft | 456 kts | 303° |
| 2026-05-06 12:14 | 40.76529 | 17.75240 | 39995 ft | 455 kts | 303° |
| 2026-05-06 12:14 | 40.80260 | 17.68523 | 39990 ft | 455 kts | 303° |
| 2026-05-06 12:15 | 40.83968 | 17.61830 | 39976 ft | 454 kts | 303° |
| 2026-05-06 12:15 | 40.87688 | 17.55099 | 39977 ft | 454 kts | 303° |
| 2026-05-06 12:16 | 40.91404 | 17.48366 | 39978 ft | 455 kts | 303° |
| 2026-05-06 12:16 | 40.95107 | 17.41641 | 39963 ft | 454 kts | 303° |
| 2026-05-06 12:17 | 40.98811 | 17.34903 | 39957 ft | 455 kts | 302° |
| 2026-05-06 12:17 | 41.02513 | 17.28122 | 39955 ft | 455 kts | 302° |
| 2026-05-06 12:18 | 41.06208 | 17.21349 | 39956 ft | 454 kts | 302° |
| 2026-05-06 12:18 | 41.09897 | 17.14578 | 39956 ft | 454 kts | 302° |
| 2026-05-06 12:19 | 41.13593 | 17.07836 | 39957 ft | 453 kts | 302° |
| 2026-05-06 12:19 | 41.17289 | 17.01074 | 39956 ft | 453 kts | 302° |
| 2026-05-06 12:20 | 41.20959 | 16.94325 | 39944 ft | 453 kts | 302° |
| 2026-05-06 12:20 | 41.24639 | 16.87530 | 39949 ft | 454 kts | 302° |
| 2026-05-06 12:21 | 41.28305 | 16.80742 | 39952 ft | 455 kts | 302° |
| 2026-05-06 12:21 | 41.31965 | 16.73946 | 39951 ft | 455 kts | 302° |
| 2026-05-06 12:22 | 41.35619 | 16.67146 | 39946 ft | 454 kts | 302° |
| 2026-05-06 12:22 | 41.39283 | 16.60313 | 39939 ft | 454 kts | 302° |
| 2026-05-06 12:23 | 41.42942 | 16.53475 | 39936 ft | 454 kts | 302° |
| 2026-05-06 12:23 | 41.46594 | 16.46635 | 39938 ft | 453 kts | 302° |
| 2026-05-06 12:24 | 41.50212 | 16.39842 | 39934 ft | 453 kts | 302° |
| 2026-05-06 12:24 | 41.53870 | 16.32957 | 39931 ft | 453 kts | 301° |
| 2026-05-06 12:25 | 41.57472 | 16.26135 | 39931 ft | 453 kts | 301° |
| 2026-05-06 12:25 | 41.61089 | 16.19282 | 39928 ft | 453 kts | 301° |
| 2026-05-06 12:26 | 41.64730 | 16.12379 | 39933 ft | 453 kts | 301° |
| 2026-05-06 12:26 | 41.68353 | 16.05496 | 39948 ft | 453 kts | 301° |
| 2026-05-06 12:27 | 41.71983 | 15.98589 | 39962 ft | 453 kts | 301° |
| 2026-05-06 12:27 | 41.75601 | 15.91688 | 39968 ft | 453 kts | 301° |
| 2026-05-06 12:28 | 41.79221 | 15.84766 | 39967 ft | 454 kts | 301° |
| 2026-05-06 12:28 | 41.82822 | 15.77866 | 39969 ft | 454 kts | 301° |
| 2026-05-06 12:29 | 41.86430 | 15.70937 | 39960 ft | 455 kts | 301° |
| 2026-05-06 12:29 | 41.90052 | 15.63965 | 39936 ft | 455 kts | 301° |
| 2026-05-06 12:30 | 41.93655 | 15.57016 | 39919 ft | 456 kts | 301° |
| 2026-05-06 12:30 | 41.97252 | 15.50060 | 39907 ft | 456 kts | 301° |
| 2026-05-06 12:31 | 42.00812 | 15.43161 | 39911 ft | 456 kts | 301° |
| 2026-05-06 12:31 | 42.04404 | 15.36186 | 39902 ft | 456 kts | 301° |
| 2026-05-06 12:32 | 42.08003 | 15.29161 | 39895 ft | 456 kts | 300° |
| 2026-05-06 12:32 | 42.11601 | 15.22129 | 39879 ft | 457 kts | 300° |
| 2026-05-06 12:33 | 42.15219 | 15.15101 | 39889 ft | 458 kts | 300° |
| 2026-05-06 12:33 | 42.18839 | 15.08037 | 39885 ft | 458 kts | 300° |
| 2026-05-06 12:34 | 42.22427 | 15.00996 | 39875 ft | 459 kts | 300° |